Time;durP1;ratioP1;P1;durP2;ratioP2;P2;SDS_P1;SDS_P2;PMS_P1;PMS_P2;Temp;Humidity;BMP_temperature;BMP_pressure;BME280_temperature;BME280_humidity;BME280_pressure;Samples;Min_cycle;Max_cycle;Signal;HPM_P1;HPM_P2
2021/07/11 00:00:01;;;;;;;8.13;5.40;;;16.30;99.90;;;;;;5054875;28;20844;-71
2021/07/11 00:02:29;;;;;;;6.23;5.63;;;16.30;99.90;;;;;;5054137;28;20204;-71
2021/07/11 00:04:55;;;;;;;7.73;5.70;;;16.30;99.90;;;;;;5054740;28;20183;-71
2021/07/11 00:07:20;;;;;;;7.63;6.80;;;16.30;99.90;;;;;;5054356;28;20403;-71
2021/07/11 00:09:46;;;;;;;7.80;7.10;;;16.30;99.90;;;;;;5054734;28;20243;-71
2021/07/11 00:12:12;;;;;;;7.60;6.93;;;16.30;99.90;;;;;;5054813;28;20171;-71
2021/07/11 00:14:38;;;;;;;8.53;7.70;;;16.40;99.90;;;;;;5054566;28;20609;-71
2021/07/11 00:17:03;;;;;;;8.87;8.07;;;16.30;99.90;;;;;;5053946;28;20394;-71
2021/07/11 00:19:29;;;;;;;9.67;8.50;;;16.40;99.90;;;;;;5053907;28;20212;-71
2021/07/11 00:21:55;;;;;;;9.07;8.23;;;16.30;99.90;;;;;;5054279;28;20450;-71
2021/07/11 00:24:20;;;;;;;9.07;8.27;;;16.30;99.90;;;;;;5053395;28;20531;-70
2021/07/11 00:26:46;;;;;;;9.37;8.13;;;16.30;99.90;;;;;;5054694;28;20171;-71
2021/07/11 00:29:11;;;;;;;11.50;8.97;;;16.30;99.90;;;;;;5054136;28;20173;-71
2021/07/11 00:31:37;;;;;;;9.00;7.30;;;16.30;99.90;;;;;;5053724;28;20166;-71
2021/07/11 00:34:02;;;;;;;8.03;7.33;;;16.30;99.90;;;;;;5053685;28;20512;-71
2021/07/11 00:36:28;;;;;;;8.77;7.77;;;16.30;99.90;;;;;;5053673;28;20164;-71
2021/07/11 00:38:53;;;;;;;9.80;8.80;;;16.30;99.90;;;;;;5062197;28;20186;-71
2021/07/11 00:41:19;;;;;;;8.10;7.20;;;16.20;99.90;;;;;;5074677;28;20184;-71
2021/07/11 00:43:44;;;;;;;8.07;7.37;;;16.20;99.90;;;;;;5073708;28;20163;-71
2021/07/11 00:46:10;;;;;;;10.67;8.00;;;16.20;99.90;;;;;;5073363;28;20155;-71
2021/07/11 00:48:36;;;;;;;9.20;8.40;;;16.20;99.90;;;;;;5073250;28;20492;-71
2021/07/11 00:51:01;;;;;;;8.20;7.10;;;16.20;99.90;;;;;;5073390;28;20167;-71
2021/07/11 00:53:27;;;;;;;10.70;7.43;;;16.20;99.90;;;;;;5054083;28;20176;-71
2021/07/11 00:55:52;;;;;;;7.30;6.70;;;16.20;99.90;;;;;;5061585;28;20183;-71
2021/07/11 00:58:18;;;;;;;8.40;7.60;;;16.20;99.90;;;;;;5073388;28;20208;-71
2021/07/11 01:00:49;;;;;;;7.30;6.60;;;16.20;99.90;;;;;;5072907;28;20171;-71
2021/07/11 01:03:34;;;;;;;7.93;7.23;;;16.20;99.90;;;;;;5058778;28;20639;-71
2021/07/11 01:06:02;;;;;;;7.83;6.37;;;16.20;99.90;;;;;;5072826;28;20475;-71
2021/07/11 01:11:30;;;;;;;6.70;6.00;;;16.20;99.90;;;;;;5070817;28;20622;-71
2021/07/11 01:13:58;;;;;;;5.33;4.80;;;16.20;99.90;;;;;;5052610;28;20469;-71
2021/07/11 01:16:28;;;;;;;5.93;4.17;;;16.20;99.90;;;;;;5049664;28;20391;-71
2021/07/11 01:18:58;;;;;;;5.00;4.17;;;16.20;99.90;;;;;;5049810;28;20389;-72
2021/07/11 01:21:25;;;;;;;4.60;4.10;;;16.20;99.90;;;;;;5049695;28;20415;-71
2021/07/11 01:24:03;;;;;;;5.10;4.70;;;16.20;99.90;;;;;;5060096;28;20887;-71
2021/07/11 01:26:30;;;;;;;4.50;4.10;;;16.20;99.90;;;;;;5070523;28;20441;-71
2021/07/11 01:28:57;;;;;;;5.90;5.30;;;16.20;99.90;;;;;;5068460;28;20432;-71
2021/07/11 01:31:25;;;;;;;5.90;5.30;;;16.20;99.90;;;;;;5069439;28;20459;-71
2021/07/11 01:33:51;;;;;;;6.03;5.53;;;16.20;99.90;;;;;;5068972;28;20406;-71
2021/07/11 01:36:18;;;;;;;7.57;6.87;;;16.20;99.90;;;;;;5069135;28;20423;-71
2021/07/11 01:38:47;;;;;;;9.60;8.43;;;16.20;99.90;;;;;;5069687;28;20382;-71
2021/07/11 01:41:13;;;;;;;11.10;10.00;;;16.20;99.90;;;;;;5069880;28;20397;-72
2021/07/11 01:43:40;;;;;;;9.37;8.33;;;16.20;99.90;;;;;;5069196;28;20870;-71
2021/07/11 01:46:08;;;;;;;8.67;7.87;;;16.20;99.90;;;;;;5066857;28;20488;-72
2021/07/11 01:48:35;;;;;;;11.77;9.67;;;16.20;99.90;;;;;;5049152;28;20872;-71
2021/07/11 01:51:01;;;;;;;10.47;9.43;;;16.20;99.90;;;;;;5048919;28;20450;-71
2021/07/11 01:53:30;;;;;;;10.13;8.77;;;16.20;99.90;;;;;;5054812;28;20506;-71
2021/07/11 01:55:57;;;;;;;10.10;9.10;;;16.20;99.90;;;;;;5070071;28;20390;-71
2021/07/11 01:58:23;;;;;;;12.30;11.00;;;16.20;99.90;;;;;;5068823;28;20432;-72
2021/07/11 02:00:50;;;;;;;12.43;11.13;;;16.20;99.90;;;;;;5068842;28;20425;-71
2021/07/11 02:03:17;;;;;;;13.57;12.20;;;16.20;99.90;;;;;;5058688;28;20183;-71
2021/07/11 02:05:45;;;;;;;13.57;12.10;;;16.20;99.90;;;;;;5068693;28;20404;-71
2021/07/11 02:08:11;;;;;;;16.30;13.23;;;16.20;99.90;;;;;;5069597;28;20393;-71
2021/07/11 02:10:38;;;;;;;17.63;13.77;;;16.20;99.90;;;;;;5068845;28;20512;-71
2021/07/11 02:13:12;;;;;;;14.70;13.13;;;16.20;99.90;;;;;;5068565;28;20394;-71
2021/07/11 02:15:44;;;;;;;17.70;15.53;;;16.20;99.90;;;;;;5068455;28;20481;-71
2021/07/11 02:18:13;;;;;;;16.70;14.80;;;16.30;99.90;;;;;;5068730;28;20477;-71
2021/07/11 02:20:38;;;;;;;17.60;14.53;;;16.30;99.90;;;;;;5067043;28;20749;-71
2021/07/11 02:23:05;;;;;;;16.70;14.30;;;16.30;99.90;;;;;;5054825;28;20409;-71
2021/07/11 02:25:31;;;;;;;16.20;14.07;;;16.30;99.90;;;;;;5056304;28;20156;-72
2021/07/11 02:27:58;;;;;;;16.50;14.77;;;16.30;99.90;;;;;;5055574;28;20411;-73
2021/07/11 02:30:28;;;;;;;15.83;14.23;;;16.30;99.90;;;;;;5055150;28;20438;-73
2021/07/11 02:32:55;;;;;;;15.90;13.90;;;16.30;99.90;;;;;;5045095;28;20905;-73
2021/07/11 02:35:30;;;;;;;17.60;14.60;;;16.30;99.90;;;;;;5035011;28;20806;-73
2021/07/11 02:37:56;;;;;;;18.63;13.97;;;16.30;99.90;;;;;;5043528;28;20410;-73
2021/07/11 02:40:22;;;;;;;18.47;15.17;;;16.30;99.90;;;;;;5055392;28;20478;-73
2021/07/11 02:42:53;;;;;;;19.07;15.43;;;16.30;99.90;;;;;;5054830;28;20427;-73
2021/07/11 02:45:19;;;;;;;16.53;14.83;;;16.30;99.90;;;;;;5054573;28;20411;-73
2021/07/11 02:47:46;;;;;;;17.87;15.10;;;16.30;99.90;;;;;;5054755;28;20474;-73
2021/07/11 02:50:15;;;;;;;18.77;16.20;;;16.30;99.90;;;;;;5054570;28;20808;-73
2021/07/11 02:52:43;;;;;;;17.00;15.30;;;16.30;99.90;;;;;;5054501;28;20403;-73
2021/07/11 02:55:11;;;;;;;20.43;17.20;;;16.30;99.90;;;;;;5036118;28;20422;-73
2021/07/11 02:57:38;;;;;;;21.20;18.33;;;16.30;99.90;;;;;;5034627;28;20478;-73
2021/07/11 03:00:07;;;;;;;19.37;17.27;;;16.30;99.90;;;;;;5034528;28;20466;-73
2021/07/11 03:02:34;;;;;;;20.50;17.73;;;16.30;99.90;;;;;;5034380;28;20416;-73
2021/07/11 03:05:00;;;;;;;21.83;17.60;;;16.40;99.90;;;;;;5034523;28;20396;-73
2021/07/11 03:07:27;;;;;;;19.30;16.70;;;16.40;99.90;;;;;;5034426;28;20403;-73
2021/07/11 03:09:52;;;;;;;17.90;16.10;;;16.40;99.90;;;;;;5034533;28;20471;-73
2021/07/11 03:12:19;;;;;;;19.90;17.50;;;16.40;99.90;;;;;;5046017;28;20418;-73
2021/07/11 03:14:49;;;;;;;22.70;18.23;;;16.40;99.90;;;;;;5053941;28;20175;-73
2021/07/11 03:17:20;;;;;;;20.67;18.17;;;16.40;99.90;;;;;;5054126;28;20405;-73
2021/07/11 03:19:48;;;;;;;21.37;18.37;;;16.40;99.90;;;;;;5054158;28;20390;-73
2021/07/11 03:22:17;;;;;;;21.13;18.07;;;16.40;99.90;;;;;;5054246;28;20486;-73
2021/07/11 03:24:43;;;;;;;22.83;20.37;;;16.40;99.90;;;;;;5054228;28;20927;-73
2021/07/11 03:27:09;;;;;;;23.60;20.80;;;16.40;99.90;;;;;;5053993;28;20395;-73
2021/07/11 03:29:38;;;;;;;22.77;19.30;;;16.40;99.90;;;;;;5053085;28;20450;-73
2021/07/11 03:32:06;;;;;;;28.30;22.80;;;16.40;99.90;;;;;;5041424;28;20437;-73
2021/07/11 03:34:34;;;;;;;26.33;21.03;;;16.40;99.90;;;;;;5032964;28;20388;-73
2021/07/11 03:37:07;;;;;;;26.70;21.17;;;16.40;99.90;;;;;;5034065;28;20831;-73
2021/07/11 03:39:38;;;;;;;32.90;25.70;;;16.40;99.90;;;;;;5033905;28;20883;-73
2021/07/11 03:42:07;;;;;;;28.53;22.30;;;16.50;99.90;;;;;;5033802;28;20419;-73
2021/07/11 03:44:35;;;;;;;29.47;24.77;;;16.40;99.90;;;;;;5033817;28;20489;-73
2021/07/11 03:47:03;;;;;;;32.33;24.20;;;16.40;99.90;;;;;;5051258;28;20922;-73
2021/07/11 03:49:30;;;;;;;33.87;25.00;;;16.40;99.90;;;;;;5053728;28;20457;-73
2021/07/11 03:52:02;;;;;;;31.27;25.40;;;16.40;99.90;;;;;;5053997;28;20391;-73
2021/07/11 03:54:31;;;;;;;34.20;26.07;;;16.40;99.90;;;;;;5053395;28;20849;-73
2021/07/11 03:56:57;;;;;;;35.20;25.10;;;16.40;99.90;;;;;;5053301;28;20522;-73
2021/07/11 03:59:24;;;;;;;37.43;26.17;;;16.40;99.90;;;;;;5053350;28;20962;-73
2021/07/11 04:01:50;;;;;;;39.80;26.77;;;16.40;99.90;;;;;;5043281;28;20417;-73
2021/07/11 04:04:19;;;;;;;33.37;25.73;;;16.40;99.90;;;;;;5052772;28;20429;-73
2021/07/11 04:06:48;;;;;;;37.03;27.07;;;16.50;99.90;;;;;;5053713;28;20390;-73
2021/07/11 04:09:17;;;;;;;37.00;25.90;;;16.50;99.90;;;;;;5053139;28;20484;-73
2021/07/11 04:11:42;;;;;;;32.90;23.77;;;16.50;99.90;;;;;;5053097;28;20399;-73
2021/07/11 04:14:08;;;;;;;36.03;26.73;;;16.50;99.90;;;;;;5053009;28;20634;-73
2021/07/11 04:16:35;;;;;;;30.97;24.40;;;16.50;99.90;;;;;;5053040;28;20152;-73
2021/07/11 04:19:03;;;;;;;33.97;26.20;;;16.50;99.90;;;;;;5049528;28;20184;-73
2021/07/11 04:21:31;;;;;;;35.83;26.53;;;16.50;99.90;;;;;;5033677;28;20873;-73
2021/07/11 04:23:58;;;;;;;33.27;25.97;;;16.50;99.90;;;;;;5032973;28;20396;-73
2021/07/11 04:26:25;;;;;;;32.43;26.17;;;16.50;99.90;;;;;;5049762;28;20414;-73
2021/07/11 04:28:52;;;;;;;33.87;25.70;;;16.40;99.90;;;;;;5052865;28;20387;-73
2021/07/11 04:31:19;;;;;;;34.20;26.50;;;16.50;99.90;;;;;;5047119;28;20947;-73
2021/07/11 04:33:47;;;;;;;33.77;25.90;;;16.50;99.90;;;;;;5032875;28;20457;-73
2021/07/11 04:36:12;;;;;;;31.10;25.50;;;16.50;99.90;;;;;;5035858;28;20485;-73
2021/07/11 04:38:38;;;;;;;32.97;25.60;;;16.50;99.90;;;;;;5053232;28;20414;-73
2021/07/11 04:41:05;;;;;;;34.03;27.00;;;16.50;99.90;;;;;;5052649;28;20160;-73
2021/07/11 04:43:31;;;;;;;35.77;25.37;;;16.50;99.90;;;;;;5052665;28;20153;-73
2021/07/11 04:45:56;;;;;;;28.57;24.20;;;16.60;99.90;;;;;;5052375;28;20453;-73
2021/07/11 04:48:22;;;;;;;31.27;24.83;;;16.50;99.90;;;;;;5052761;28;20240;-73
2021/07/11 04:50:48;;;;;;;32.70;25.87;;;16.50;99.90;;;;;;5053276;28;20263;-73
2021/07/11 04:53:15;;;;;;;30.97;25.23;;;16.60;99.90;;;;;;5051697;28;20595;-73
2021/07/11 04:55:43;;;;;;;33.33;26.33;;;16.60;99.90;;;;;;5052456;28;20156;-73
2021/07/11 04:58:08;;;;;;;28.47;23.87;;;16.60;99.90;;;;;;5042372;28;20426;-73
2021/07/11 05:00:34;;;;;;;28.37;25.30;;;16.60;99.90;;;;;;5052526;28;20395;-73
2021/07/11 05:02:59;;;;;;;28.70;24.87;;;16.60;99.90;;;;;;5041353;28;20179;-73
2021/07/11 05:05:25;;;;;;;26.13;23.30;;;16.60;99.90;;;;;;5034007;28;20196;-73
2021/07/11 05:07:51;;;;;;;28.20;25.17;;;16.60;99.90;;;;;;5032549;28;20165;-73
2021/07/11 05:10:16;;;;;;;28.10;25.07;;;16.60;99.90;;;;;;5035686;28;20208;-73
2021/07/11 05:12:42;;;;;;;27.60;24.60;;;16.60;99.90;;;;;;5052468;28;20609;-73
2021/07/11 05:15:08;;;;;;;30.63;24.70;;;16.60;99.90;;;;;;5052374;28;20515;-73
2021/07/11 05:17:35;;;;;;;28.77;25.67;;;16.60;99.90;;;;;;5053066;28;20164;-73
2021/07/11 05:20:00;;;;;;;28.30;24.87;;;16.60;99.90;;;;;;5052961;28;20867;-73
2021/07/11 05:22:26;;;;;;;33.70;28.00;;;16.60;99.90;;;;;;5052376;28;20412;-73
2021/07/11 05:24:53;;;;;;;32.50;28.10;;;16.60;99.90;;;;;;5052483;28;20526;-73
2021/07/11 05:27:18;;;;;;;31.60;27.80;;;16.70;99.90;;;;;;5051320;28;20478;-73
2021/07/11 05:29:44;;;;;;;30.03;26.43;;;16.70;99.90;;;;;;5052295;28;20450;-73
2021/07/11 05:32:09;;;;;;;31.20;26.50;;;16.70;99.90;;;;;;5048294;28;20161;-73
2021/07/11 05:34:35;;;;;;;31.90;27.23;;;16.70;99.90;;;;;;5032969;28;20606;-73
2021/07/11 05:37:01;;;;;;;29.53;26.37;;;16.70;99.90;;;;;;5032218;28;20168;-73
2021/07/11 05:39:26;;;;;;;30.07;26.87;;;16.80;99.90;;;;;;5032241;28;20157;-73
2021/07/11 05:41:52;;;;;;;29.97;25.70;;;16.80;99.90;;;;;;5032314;28;20283;-73
2021/07/11 05:44:17;;;;;;;33.47;26.23;;;16.80;99.90;;;;;;5035995;28;20195;-73
2021/07/11 05:46:43;;;;;;;30.77;27.00;;;16.80;99.90;;;;;;5052644;28;20157;-73
2021/07/11 05:49:09;;;;;;;34.47;27.63;;;16.80;99.90;;;;;;5052323;28;20165;-73
2021/07/11 05:51:35;;;;;;;31.47;27.60;;;16.90;99.90;;;;;;5052167;28;20544;-73
2021/07/11 05:54:01;;;;;;;29.83;25.60;;;16.90;99.90;;;;;;5052109;28;20938;-73
2021/07/11 05:56:26;;;;;;;30.60;26.80;;;16.90;99.90;;;;;;5052867;28;20208;-73
2021/07/11 05:58:52;;;;;;;27.53;24.53;;;17.00;99.90;;;;;;5038073;28;20256;-73
2021/07/11 06:01:17;;;;;;;29.30;26.30;;;17.00;99.90;;;;;;5039181;28;20190;-73
2021/07/11 06:03:43;;;;;;;32.50;28.60;;;17.10;99.90;;;;;;5056193;28;20197;-73
2021/07/11 06:06:08;;;;;;;30.97;27.53;;;17.00;99.90;;;;;;5055909;28;20530;-73
2021/07/11 06:08:34;;;;;;;33.10;28.03;;;17.00;99.90;;;;;;5055541;28;20193;-73
2021/07/11 06:11:00;;;;;;;32.97;27.80;;;17.00;99.90;;;;;;5055533;28;20573;-73
2021/07/11 06:13:25;;;;;;;32.83;28.27;;;17.00;99.90;;;;;;5057706;28;20628;-73
2021/07/11 06:15:51;;;;;;;30.83;27.47;;;17.00;99.90;;;;;;5056240;28;20167;-73
2021/07/11 06:18:18;;;;;;;31.30;26.97;;;17.00;99.90;;;;;;5055266;28;20638;-73
2021/07/11 06:20:44;;;;;;;29.63;26.40;;;17.00;99.90;;;;;;5055386;28;20395;-73
2021/07/11 06:23:10;;;;;;;30.53;27.13;;;17.00;99.90;;;;;;5055171;28;20494;-73
2021/07/11 06:25:36;;;;;;;29.20;25.93;;;17.00;99.90;;;;;;5055280;28;20399;-73
2021/07/11 06:28:02;;;;;;;26.53;23.70;;;17.00;99.90;;;;;;5046079;28;20208;-73
2021/07/11 06:30:28;;;;;;;27.40;24.50;;;17.10;99.90;;;;;;5035887;28;20452;-73
2021/07/11 06:32:53;;;;;;;25.80;22.80;;;17.10;99.90;;;;;;5035839;28;20401;-73
2021/07/11 06:35:21;;;;;;;26.93;24.03;;;17.20;99.90;;;;;;5039076;28;20187;-73
2021/07/11 06:37:47;;;;;;;26.93;24.13;;;17.20;99.90;;;;;;5055041;28;20155;-73
2021/07/11 06:40:15;;;;;;;28.17;24.57;;;17.30;99.90;;;;;;5054963;28;20423;-73
2021/07/11 06:42:41;;;;;;;24.83;22.23;;;17.40;99.90;;;;;;5055029;28;20396;-73
2021/07/11 06:45:09;;;;;;;25.73;22.70;;;17.40;99.90;;;;;;5055802;28;20423;-73
2021/07/11 06:47:35;;;;;;;27.30;24.43;;;17.50;99.90;;;;;;5055038;28;20160;-73
2021/07/11 06:50:03;;;;;;;26.67;23.93;;;17.50;99.90;;;;;;5054928;28;20539;-73
2021/07/11 06:52:29;;;;;;;26.83;24.00;;;17.50;99.90;;;;;;5053988;28;20406;-73
2021/07/11 06:54:55;;;;;;;28.10;23.87;;;17.50;99.90;;;;;;5054991;28;20445;-73
2021/07/11 06:57:21;;;;;;;27.07;24.37;;;17.50;99.90;;;;;;5047333;28;20184;-73
2021/07/11 06:59:47;;;;;;;30.80;25.93;;;17.50;99.90;;;;;;5036157;28;20416;-73
2021/07/11 07:02:12;;;;;;;28.73;25.27;;;17.60;99.90;;;;;;5034944;28;20169;-73
2021/07/11 07:04:38;;;;;;;29.40;26.30;;;17.60;99.90;;;;;;5034632;28;20169;-73
2021/07/11 07:07:04;;;;;;;27.27;24.40;;;17.60;99.90;;;;;;5034612;28;20236;-73
2021/07/11 07:09:29;;;;;;;32.30;25.87;;;17.60;99.90;;;;;;5035065;28;20190;-73
2021/07/11 07:11:55;;;;;;;32.10;25.20;;;17.60;99.90;;;;;;5034600;28;20418;-73
2021/07/11 07:14:20;;;;;;;28.43;25.47;;;17.60;99.90;;;;;;5035588;28;20296;-73
2021/07/11 07:16:46;;;;;;;28.10;24.00;;;17.60;99.90;;;;;;5034553;28;20236;-73
2021/07/11 07:19:12;;;;;;;31.13;26.00;;;17.60;99.90;;;;;;5034341;28;20159;-73
2021/07/11 07:21:37;;;;;;;30.63;27.43;;;17.50;99.90;;;;;;5034337;28;20214;-73
2021/07/11 07:24:03;;;;;;;31.50;28.10;;;17.60;99.90;;;;;;5034031;28;20169;-73
2021/07/11 07:26:29;;;;;;;29.93;26.07;;;17.50;99.90;;;;;;5037143;28;20232;-73
2021/07/11 07:28:54;;;;;;;30.37;26.90;;;17.50;99.90;;;;;;5053189;28;20620;-73
2021/07/11 07:31:20;;;;;;;30.47;27.17;;;17.50;99.90;;;;;;5054020;28;20188;-73
2021/07/11 07:33:46;;;;;;;29.23;26.03;;;17.50;99.90;;;;;;5054085;28;20159;-73
2021/07/11 07:36:11;;;;;;;30.90;27.60;;;17.60;99.90;;;;;;5053979;28;20618;-73
2021/07/11 07:38:37;;;;;;;31.60;27.67;;;17.60;99.90;;;;;;5053911;28;20172;-73
2021/07/11 07:41:03;;;;;;;32.80;26.83;;;17.70;99.90;;;;;;5053881;28;20159;-73
2021/07/11 07:43:29;;;;;;;29.90;25.50;;;17.80;99.90;;;;;;5053913;28;20543;-73
2021/07/11 07:45:54;;;;;;;29.13;25.73;;;17.90;99.90;;;;;;5053792;28;20169;-73
2021/07/11 07:48:20;;;;;;;29.67;26.53;;;18.00;99.90;;;;;;5053685;28;20169;-73
2021/07/11 07:50:52;;;;;;;31.57;26.87;;;18.00;99.90;;;;;;5053636;28;20198;-73
2021/07/11 07:53:17;;;;;;;35.57;30.07;;;18.00;99.90;;;;;;5053939;28;20559;-73
2021/07/11 07:55:43;;;;;;;34.13;29.13;;;18.10;99.90;;;;;;5053677;28;20543;-73
2021/07/11 07:58:09;;;;;;;37.90;30.70;;;18.10;99.90;;;;;;5041295;28;20660;-73
2021/07/11 08:00:34;;;;;;;35.27;29.20;;;18.10;99.90;;;;;;5039175;28;20605;-73
2021/07/11 08:03:00;;;;;;;37.50;30.70;;;18.10;99.90;;;;;;5053445;28;20155;-73
2021/07/11 08:05:27;;;;;;;38.03;30.37;;;18.10;99.90;;;;;;5053550;28;20156;-73
2021/07/11 08:07:53;;;;;;;38.00;29.83;;;18.10;99.90;;;;;;5053313;28;20165;-73
2021/07/11 08:10:19;;;;;;;36.57;29.30;;;18.10;99.90;;;;;;5053283;28;20464;-73
2021/07/11 08:12:46;;;;;;;37.80;29.13;;;18.00;99.90;;;;;;5054084;28;20625;-73
2021/07/11 08:15:16;;;;;;;39.50;30.90;;;18.10;99.90;;;;;;5053196;28;20815;-73
2021/07/11 08:17:43;;;;;;;36.93;29.90;;;18.10;99.90;;;;;;5052321;28;20476;-73
2021/07/11 08:20:09;;;;;;;39.03;31.07;;;18.10;99.90;;;;;;5052726;28;20937;-73
2021/07/11 08:22:35;;;;;;;35.57;28.57;;;18.10;99.90;;;;;;5053001;28;20427;-73
2021/07/11 08:25:00;;;;;;;34.60;30.13;;;18.10;99.90;;;;;;5053046;28;20883;-73
2021/07/11 08:27:26;;;;;;;35.50;29.43;;;18.10;99.90;;;;;;5046293;28;20193;-73
2021/07/11 08:29:52;;;;;;;36.27;28.47;;;18.20;99.90;;;;;;5033015;28;20598;-73
2021/07/11 08:32:18;;;;;;;35.40;28.40;;;18.30;99.90;;;;;;5033249;28;20161;-73
2021/07/11 08:34:44;;;;;;;32.60;25.20;;;18.40;99.90;;;;;;5040125;28;20537;-73
2021/07/11 08:37:10;;;;;;;33.27;28.13;;;18.60;99.90;;;;;;5052832;28;20436;-73
2021/07/11 08:39:35;;;;;;;34.57;27.30;;;18.60;99.90;;;;;;5052868;28;20192;-73
2021/07/11 08:42:01;;;;;;;35.13;27.40;;;18.60;99.90;;;;;;5053218;28;20165;-73
2021/07/11 08:44:27;;;;;;;32.97;28.17;;;18.70;99.90;;;;;;5052674;28;20685;-73
2021/07/11 08:46:53;;;;;;;36.80;29.57;;;18.70;99.90;;;;;;5052812;28;20243;-73
2021/07/11 08:49:21;;;;;;;34.50;27.90;;;18.70;99.90;;;;;;5052556;28;20387;-73
2021/07/11 08:51:47;;;;;;;34.00;29.23;;;18.60;99.90;;;;;;5051797;28;20804;-73
2021/07/11 08:54:15;;;;;;;38.53;28.63;;;18.60;99.90;;;;;;5052811;28;20397;-73
2021/07/11 08:56:43;;;;;;;37.00;30.27;;;18.70;99.90;;;;;;5049533;28;20275;-73
2021/07/11 08:59:08;;;;;;;35.60;29.90;;;18.70;99.90;;;;;;5032385;28;20963;-73
2021/07/11 09:01:34;;;;;;;37.50;29.80;;;18.80;99.90;;;;;;5032603;28;20458;-73
2021/07/11 09:04:14;;;;;;;35.77;28.93;;;18.90;99.90;;;;;;5032607;28;20165;-73
2021/07/11 09:06:43;;;;;;;35.90;28.47;;;19.00;99.90;;;;;;5032513;28;20670;-73
2021/07/11 09:09:09;;;;;;;36.20;28.97;;;19.00;99.90;;;;;;5033300;28;20420;-73
2021/07/11 09:11:54;;;;;;;30.03;26.83;;;19.10;99.90;;;;;;5033080;28;20972;-73
2021/07/11 09:14:23;;;;;;;35.90;28.90;;;19.20;99.90;;;;;;5032305;28;20410;-73
2021/07/11 09:16:50;;;;;;;33.20;26.30;;;19.40;99.90;;;;;;5032459;28;20400;-73
2021/07/11 09:19:22;;;;;;;33.90;25.23;;;19.50;99.90;;;;;;5032446;28;20423;-73
2021/07/11 09:22:05;;;;;;;28.97;24.80;;;19.60;99.90;;;;;;5032240;28;20521;-73
2021/07/11 09:24:33;;;;;;;28.00;22.70;;;19.70;99.90;;;;;;5033006;28;20531;-73
2021/07/11 09:27:09;;;;;;;23.07;19.40;;;19.70;99.90;;;;;;5042520;28;20409;-73
2021/07/11 09:29:35;;;;;;;22.77;19.97;;;19.80;99.90;;;;;;5052217;28;20953;-73
2021/07/11 09:32:01;;;;;;;22.37;19.97;;;19.80;99.90;;;;;;5050887;28;20411;-73
2021/07/11 09:34:29;;;;;;;23.83;19.63;;;20.00;99.90;;;;;;5036361;28;20799;-73
2021/07/11 09:37:16;;;;;;;20.93;18.43;;;20.20;99.90;;;;;;5036314;28;20487;-73
2021/07/11 09:39:55;;;;;;;18.20;16.13;;;20.70;99.90;;;;;;5035871;28;20465;-73
2021/07/11 09:42:27;;;;;;;18.10;16.03;;;21.30;99.90;;;;;;5040089;28;20825;-73
2021/07/11 09:44:53;;;;;;;21.67;14.00;;;22.10;99.90;;;;;;5056145;28;20395;-73
2021/07/11 09:47:21;;;;;;;16.97;13.33;;;23.00;99.90;;;;;;5055853;28;20416;-73
2021/07/11 09:50:11;;;;;;;18.97;14.30;;;24.00;99.90;;;;;;5056113;28;20200;-71
2021/07/11 09:52:40;;;;;;;20.83;13.90;;;24.80;99.90;;;;;;5056141;28;20964;-71
2021/07/11 09:55:10;;;;;;;16.50;13.60;;;25.30;99.90;;;;;;5056030;28;20786;-71
2021/07/11 09:57:39;;;;;;;15.23;13.53;;;25.40;99.90;;;;;;5042762;28;20423;-71
2021/07/11 10:02:53;;;;;;;20.10;13.77;;;24.90;99.90;;;;;;5070077;28;20516;-72
2021/07/11 10:05:20;;;;;;;18.50;16.47;;;24.50;99.90;;;;;;5070003;28;20383;-72
2021/07/11 10:07:46;;;;;;;19.20;14.60;;;24.20;99.90;;;;;;5070368;28;20378;-72
2021/07/11 10:10:14;;;;;;;17.17;14.57;;;23.80;99.90;;;;;;5069990;28;20382;-72
2021/07/11 10:12:40;;;;;;;16.03;14.37;;;23.50;99.90;;;;;;5069668;28;20938;-72
2021/07/11 10:15:11;;;;;;;17.97;15.90;;;23.10;99.90;;;;;;5069861;28;20382;-72
2021/07/11 10:17:42;;;;;;;19.63;16.07;;;22.90;99.90;;;;;;5055019;28;20180;-72
2021/07/11 10:20:09;;;;;;;19.13;17.10;;;22.80;99.90;;;;;;5049777;28;20383;-72
2021/07/11 10:22:43;;;;;;;21.83;16.00;;;22.60;99.90;;;;;;5050112;28;20477;-72
2021/07/11 10:25:12;;;;;;;21.27;16.20;;;22.50;99.90;;;;;;5052747;28;20492;-72
2021/07/11 10:27:37;;;;;;;15.47;13.87;;;22.40;99.90;;;;;;5069255;28;20497;-72
2021/07/11 10:30:04;;;;;;;17.20;15.40;;;22.40;99.90;;;;;;5069445;28;20478;-72
2021/07/11 10:32:31;;;;;;;18.07;15.23;;;22.40;99.90;;;;;;5069461;28;20152;-72
2021/07/11 10:35:17;;;;;;;18.17;15.13;;;22.40;99.90;;;;;;5052136;28;20418;-72
2021/07/11 10:40:35;;;;;;;16.50;14.80;;;22.50;99.90;;;;;;5070055;28;20554;-73
2021/07/11 10:43:11;;;;;;;16.00;14.50;;;22.50;99.90;;;;;;5070063;28;20394;-73
2021/07/11 10:45:44;;;;;;;16.30;14.70;;;22.60;99.90;;;;;;5070095;28;20424;-73
2021/07/11 10:48:10;;;;;;;15.60;14.00;;;22.60;99.90;;;;;;5069852;28;20789;-73
2021/07/11 10:50:42;;;;;;;16.23;14.53;;;22.60;99.90;;;;;;5063971;28;20457;-73
2021/07/11 10:53:17;;;;;;;17.70;14.70;;;22.70;99.90;;;;;;5049879;28;20153;-73
2021/07/11 10:55:43;;;;;;;16.00;13.73;;;22.90;99.90;;;;;;5049746;28;20403;-73
2021/07/11 10:58:12;;;;;;;16.23;14.63;;;23.00;99.90;;;;;;5069150;28;20487;-73
2021/07/11 11:00:37;;;;;;;14.53;12.87;;;23.10;99.90;;;;;;5069541;28;20391;-73
2021/07/11 11:03:23;;;;;;;15.53;14.00;;;23.20;99.90;;;;;;5069785;28;21009;-73
2021/07/11 11:05:50;;;;;;;15.97;14.50;;;23.30;99.90;;;;;;5068734;28;20191;-73
2021/07/11 11:08:19;;;;;;;14.90;13.50;;;23.50;99.90;;;;;;5057444;28;20927;-73
2021/07/11 11:10:47;;;;;;;16.30;14.70;;;23.70;99.90;;;;;;5049329;28;20403;-73
2021/07/11 11:15:59;;;;;;;15.03;12.00;;;23.90;99.90;;;;;;5130774;27;20630;-72
2021/07/11 11:21:17;;;;;;;14.50;13.00;;;24.30;99.90;;;;;;5070439;28;20558;-75
2021/07/11 11:23:46;;;;;;;16.10;14.50;;;24.30;99.90;;;;;;5070700;28;20394;-76
2021/07/11 11:26:25;;;;;;;14.03;12.73;;;24.20;99.90;;;;;;5062511;28;20402;-76
2021/07/11 11:28:52;;;;;;;13.50;12.20;;;24.10;99.90;;;;;;5070128;28;20833;-76
2021/07/11 11:34:13;;;;;;;13.60;12.30;;;24.00;99.90;;;;;;5070600;28;20600;-73
2021/07/11 11:36:41;;;;;;;14.50;13.20;;;24.00;99.90;;;;;;5070309;28;20984;-73
2021/07/11 11:41:45;;;;;;;15.20;13.60;;;24.00;99.90;;;;;;5062482;28;21007;-72
2021/07/11 11:44:13;;;;;;;14.07;12.83;;;23.80;99.90;;;;;;5050009;28;20399;-72
2021/07/11 11:46:42;;;;;;;15.07;13.67;;;23.70;99.90;;;;;;5049843;28;20511;-73
2021/07/11 11:49:10;;;;;;;15.37;13.90;;;23.50;99.90;;;;;;5050706;28;20387;-73
2021/07/11 11:51:42;;;;;;;17.17;15.57;;;23.30;99.90;;;;;;5050023;28;20390;-73
2021/07/11 11:54:07;;;;;;;16.17;14.57;;;23.20;99.90;;;;;;5049814;28;20390;-73
2021/07/11 11:56:36;;;;;;;16.17;14.60;;;23.00;99.90;;;;;;5049764;28;20387;-73
2021/07/11 11:59:05;;;;;;;16.83;14.87;;;22.90;99.90;;;;;;5049468;28;20204;-73
2021/07/11 12:01:34;;;;;;;18.30;15.33;;;22.70;99.90;;;;;;5049562;28;20782;-73
2021/07/11 12:06:50;;;;;;;17.30;15.53;;;22.50;99.90;;;;;;5069946;28;20545;-72
2021/07/11 12:09:17;;;;;;;16.53;14.83;;;22.50;99.90;;;;;;5069865;28;20398;-72
2021/07/11 12:11:43;;;;;;;15.23;13.63;;;22.50;99.90;;;;;;5069717;28;20493;-72
2021/07/11 12:14:11;;;;;;;16.53;14.93;;;22.50;99.90;;;;;;5069899;28;20919;-72
2021/07/11 12:16:37;;;;;;;17.17;15.40;;;22.40;99.90;;;;;;5064362;28;20497;-72
2021/07/11 12:19:06;;;;;;;16.97;15.17;;;22.40;99.90;;;;;;5069954;28;20448;-72
2021/07/11 12:21:32;;;;;;;15.50;13.90;;;22.40;99.90;;;;;;5069571;28;20760;-73
2021/07/11 12:24:01;;;;;;;17.20;15.40;;;22.40;99.90;;;;;;5069784;28;20707;-73
2021/07/11 12:26:29;;;;;;;15.73;13.80;;;22.30;99.90;;;;;;5069472;28;20981;-72
2021/07/11 12:28:56;;;;;;;19.23;16.00;;;22.30;99.90;;;;;;5070167;28;20785;-72
2021/07/11 12:31:23;;;;;;;16.13;14.47;;;22.40;99.90;;;;;;5069819;28;20398;-72
2021/07/11 12:33:56;;;;;;;16.43;14.83;;;22.60;99.90;;;;;;5068982;28;20414;-72
2021/07/11 12:36:22;;;;;;;15.80;14.20;;;22.70;99.90;;;;;;5069352;28;20394;-72
2021/07/11 12:38:47;;;;;;;18.30;15.00;;;22.80;99.90;;;;;;5069349;28;20942;-72
2021/07/11 12:41:13;;;;;;;18.97;17.07;;;23.00;99.90;;;;;;5069245;28;20270;-72
2021/07/11 12:43:56;;;;;;;15.43;13.93;;;23.10;99.90;;;;;;5070503;28;20228;-72
2021/07/11 12:46:26;;;;;;;18.50;16.60;;;23.30;99.90;;;;;;5069500;28;20682;-72
2021/07/11 12:48:55;;;;;;;19.93;18.00;;;23.30;99.90;;;;;;5068747;28;20772;-72
2021/07/11 12:56:58;;;;;;;13.10;11.90;;;23.40;99.90;;;;;;5070412;28;20512;-71
2021/07/11 12:59:35;;;;;;;14.37;12.90;;;23.30;99.90;;;;;;5070280;28;20421;-73